sensor_id;sensor_type;location;lat;lon;timestamp;pressure;altitude;pressure_sealevel;temperature;humidity
23170;BME280;11753;43.144;24.714;2022-09-29T00:00:03;98558.75;;;16.62;91.60
23170;BME280;11753;43.144;24.714;2022-09-29T00:01:03;98564.56;;;16.52;91.97
23170;BME280;11753;43.144;24.714;2022-09-29T00:02:05;98557.34;;;16.60;91.73
23170;BME280;11753;43.144;24.714;2022-09-29T00:03:07;98558.66;;;16.50;91.94
23170;BME280;11753;43.144;24.714;2022-09-29T00:04:08;98567.44;;;16.51;91.99
23170;BME280;11753;43.144;24.714;2022-09-29T00:05:09;98567.59;;;16.56;91.80
23170;BME280;11753;43.144;24.714;2022-09-29T00:06:12;98569.66;;;16.54;91.57
23170;BME280;11753;43.144;24.714;2022-09-29T00:07:14;98566.81;;;16.49;91.91
23170;BME280;11753;43.144;24.714;2022-09-29T00:08:16;98572.94;;;16.49;92.04
23170;BME280;11753;43.144;24.714;2022-09-29T00:09:17;98562.75;;;16.46;92.01
23170;BME280;11753;43.144;24.714;2022-09-29T00:10:18;98571.53;;;16.47;91.95
23170;BME280;11753;43.144;24.714;2022-09-29T00:11:19;98569.34;;;16.44;92.18
23170;BME280;11753;43.144;24.714;2022-09-29T00:12:20;98568.94;;;16.40;92.24
23170;BME280;11753;43.144;24.714;2022-09-29T00:13:22;98579.50;;;16.47;92.20
23170;BME280;11753;43.144;24.714;2022-09-29T00:14:23;98573.75;;;16.50;91.81
23170;BME280;11753;43.144;24.714;2022-09-29T00:15:24;98573.66;;;16.38;92.41
23170;BME280;11753;43.144;24.714;2022-09-29T00:16:25;98571.88;;;16.32;92.88
23170;BME280;11753;43.144;24.714;2022-09-29T00:17:26;98574.78;;;16.24;93.72
23170;BME280;11753;43.144;24.714;2022-09-29T00:18:27;98568.88;;;16.22;93.50
23170;BME280;11753;43.144;24.714;2022-09-29T00:19:28;98573.16;;;16.23;93.62
23170;BME280;11753;43.144;24.714;2022-09-29T00:20:30;98567.41;;;16.26;93.36
23170;BME280;11753;43.144;24.714;2022-09-29T00:21:31;98569.28;;;16.19;93.99
23170;BME280;11753;43.144;24.714;2022-09-29T00:22:31;98568.25;;;16.20;93.84
23170;BME280;11753;43.144;24.714;2022-09-29T00:23:33;98567.09;;;16.16;93.85
23170;BME280;11753;43.144;24.714;2022-09-29T00:24:34;98574.88;;;16.11;94.37
23170;BME280;11753;43.144;24.714;2022-09-29T00:25:35;98568.13;;;16.15;94.06
23170;BME280;11753;43.144;24.714;2022-09-29T00:26:35;98556.88;;;16.13;94.09
23170;BME280;11753;43.144;24.714;2022-09-29T00:27:36;98565.06;;;16.11;94.38
23170;BME280;11753;43.144;24.714;2022-09-29T00:28:38;98567.50;;;16.13;94.45
23170;BME280;11753;43.144;24.714;2022-09-29T00:29:40;98563.44;;;16.10;94.42
23170;BME280;11753;43.144;24.714;2022-09-29T00:30:40;98559.19;;;16.03;94.87
23170;BME280;11753;43.144;24.714;2022-09-29T00:31:41;98566.56;;;16.01;95.23
23170;BME280;11753;43.144;24.714;2022-09-29T00:32:41;98562.63;;;16.10;95.12
23170;BME280;11753;43.144;24.714;2022-09-29T00:33:42;98564.06;;;16.06;94.96
23170;BME280;11753;43.144;24.714;2022-09-29T00:34:43;98570.00;;;16.08;94.91
23170;BME280;11753;43.144;24.714;2022-09-29T00:35:44;98566.13;;;16.04;95.30
23170;BME280;11753;43.144;24.714;2022-09-29T00:36:45;98562.25;;;16.00;95.67
23170;BME280;11753;43.144;24.714;2022-09-29T00:37:46;98569.22;;;16.01;95.55
23170;BME280;11753;43.144;24.714;2022-09-29T00:38:48;98560.03;;;15.96;95.74
23170;BME280;11753;43.144;24.714;2022-09-29T00:39:49;98569.41;;;15.99;95.95
23170;BME280;11753;43.144;24.714;2022-09-29T00:40:50;98565.53;;;16.02;95.48
23170;BME280;11753;43.144;24.714;2022-09-29T00:41:51;98565.13;;;15.98;95.63
23170;BME280;11753;43.144;24.714;2022-09-29T00:42:52;98567.41;;;15.94;95.87
23170;BME280;11753;43.144;24.714;2022-09-29T00:43:55;98565.16;;;15.91;96.13
23170;BME280;11753;43.144;24.714;2022-09-29T00:45:17;98560.47;;;15.93;95.61
23170;BME280;11753;43.144;24.714;2022-09-29T00:47:42;98564.75;;;15.94;95.74
23170;BME280;11753;43.144;24.714;2022-09-29T00:48:45;98561.47;;;15.92;95.81
23170;BME280;11753;43.144;24.714;2022-09-29T00:49:52;98567.22;;;15.89;96.04
23170;BME280;11753;43.144;24.714;2022-09-29T00:50:56;98564.81;;;15.88;96.14
23170;BME280;11753;43.144;24.714;2022-09-29T00:52:09;98563.94;;;15.94;95.73
23170;BME280;11753;43.144;24.714;2022-09-29T00:53:12;98562.78;;;15.83;95.93
23170;BME280;11753;43.144;24.714;2022-09-29T00:54:16;98567.47;;;15.81;96.06
23170;BME280;11753;43.144;24.714;2022-09-29T00:55:24;98559.91;;;15.85;96.03
23170;BME280;11753;43.144;24.714;2022-09-29T00:56:26;98570.94;;;15.82;96.14
23170;BME280;11753;43.144;24.714;2022-09-29T00:57:33;98560.31;;;15.88;95.74
23170;BME280;11753;43.144;24.714;2022-09-29T00:58:41;98558.25;;;15.90;95.90
23170;BME280;11753;43.144;24.714;2022-09-29T00:59:57;98558.88;;;15.86;96.16
23170;BME280;11753;43.144;24.714;2022-09-29T01:01:03;98565.44;;;15.83;96.26
23170;BME280;11753;43.144;24.714;2022-09-29T01:02:04;98569.69;;;15.84;96.44
23170;BME280;11753;43.144;24.714;2022-09-29T01:03:12;98569.53;;;15.79;96.76
23170;BME280;11753;43.144;24.714;2022-09-29T01:04:16;98562.41;;;15.80;96.81
23170;BME280;11753;43.144;24.714;2022-09-29T01:05:22;98561.59;;;15.79;96.91
23170;BME280;11753;43.144;24.714;2022-09-29T01:06:30;98566.88;;;15.79;96.90
23170;BME280;11753;43.144;24.714;2022-09-29T01:07:32;98558.94;;;15.79;96.97
23170;BME280;11753;43.144;24.714;2022-09-29T01:08:40;98557.91;;;15.80;96.88
23170;BME280;11753;43.144;24.714;2022-09-29T01:09:43;98560.56;;;15.80;96.75
23170;BME280;11753;43.144;24.714;2022-09-29T01:10:44;98560.38;;;15.75;96.94
23170;BME280;11753;43.144;24.714;2022-09-29T01:11:47;98560.41;;;15.68;97.08
23170;BME280;11753;43.144;24.714;2022-09-29T01:12:49;98556.75;;;15.63;97.40
23170;BME280;11753;43.144;24.714;2022-09-29T01:13:51;98559.00;;;15.66;97.43
23170;BME280;11753;43.144;24.714;2022-09-29T01:14:53;98561.06;;;15.57;97.72
23170;BME280;11753;43.144;24.714;2022-09-29T01:15:55;98562.06;;;15.50;98.13
23170;BME280;11753;43.144;24.714;2022-09-29T01:16:56;98565.34;;;15.52;98.28
23170;BME280;11753;43.144;24.714;2022-09-29T01:17:57;98555.34;;;15.54;98.21
23170;BME280;11753;43.144;24.714;2022-09-29T01:18:59;98559.59;;;15.55;97.85
23170;BME280;11753;43.144;24.714;2022-09-29T01:20:10;98556.38;;;15.53;97.77
23170;BME280;11753;43.144;24.714;2022-09-29T01:26:17;98549.84;;;15.49;98.13
23170;BME280;11753;43.144;24.714;2022-09-29T01:34:52;98558.88;;;15.34;99.72
23170;BME280;11753;43.144;24.714;2022-09-29T01:37:23;98567.50;;;15.23;100.00
23170;BME280;11753;43.144;24.714;2022-09-29T01:40:15;98559.31;;;15.31;99.79
23170;BME280;11753;43.144;24.714;2022-09-29T01:41:27;98563.81;;;15.24;99.93
23170;BME280;11753;43.144;24.714;2022-09-29T01:42:42;98559.94;;;15.20;100.00
23170;BME280;11753;43.144;24.714;2022-09-29T01:44:19;98562.81;;;15.19;100.00
23170;BME280;11753;43.144;24.714;2022-09-29T01:45:29;98557.72;;;15.17;100.00
23170;BME280;11753;43.144;24.714;2022-09-29T01:47:00;98565.88;;;15.16;100.00
23170;BME280;11753;43.144;24.714;2022-09-29T01:48:17;98564.66;;;15.11;100.00
23170;BME280;11753;43.144;24.714;2022-09-29T01:49:21;98565.47;;;15.12;100.00
23170;BME280;11753;43.144;24.714;2022-09-29T01:50:30;98565.69;;;15.10;100.00
23170;BME280;11753;43.144;24.714;2022-09-29T01:51:53;98568.94;;;15.06;100.00
23170;BME280;11753;43.144;24.714;2022-09-29T01:52:55;98563.84;;;15.11;100.00
23170;BME280;11753;43.144;24.714;2022-09-29T01:54:03;98560.19;;;15.05;100.00
23170;BME280;11753;43.144;24.714;2022-09-29T01:55:09;98558.53;;;15.11;100.00
23170;BME280;11753;43.144;24.714;2022-09-29T01:56:17;98564.88;;;15.03;100.00
23170;BME280;11753;43.144;24.714;2022-09-29T01:57:26;98561.41;;;15.03;100.00
23170;BME280;11753;43.144;24.714;2022-09-29T01:58:52;98564.66;;;15.05;100.00
23170;BME280;11753;43.144;24.714;2022-09-29T02:00:05;98569.97;;;15.05;100.00
23170;BME280;11753;43.144;24.714;2022-09-29T02:01:13;98567.97;;;14.94;100.00
23170;BME280;11753;43.144;24.714;2022-09-29T02:02:19;98568.16;;;14.92;100.00
23170;BME280;11753;43.144;24.714;2022-09-29T02:03:47;98567.16;;;14.86;100.00
23170;BME280;11753;43.144;24.714;2022-09-29T02:04:56;98561.44;;;14.90;100.00
23170;BME280;11753;43.144;24.714;2022-09-29T02:06:06;98569.38;;;14.90;100.00
23170;BME280;11753;43.144;24.714;2022-09-29T02:07:15;98569.81;;;14.86;100.00
23170;BME280;11753;43.144;24.714;2022-09-29T02:08:43;98563.72;;;14.79;100.00
23170;BME280;11753;43.144;24.714;2022-09-29T02:09:52;98562.47;;;14.75;100.00
23170;BME280;11753;43.144;24.714;2022-09-29T02:12:04;98571.25;;;14.69;100.00
23170;BME280;11753;43.144;24.714;2022-09-29T02:13:08;98566.97;;;14.68;100.00
23170;BME280;11753;43.144;24.714;2022-09-29T02:14:16;98581.44;;;14.72;100.00
23170;BME280;11753;43.144;24.714;2022-09-29T02:15:23;98569.63;;;14.68;100.00
23170;BME280;11753;43.144;24.714;2022-09-29T02:16:31;98576.53;;;14.69;100.00
23170;BME280;11753;43.144;24.714;2022-09-29T02:17:39;98578.56;;;14.67;100.00
23170;BME280;11753;43.144;24.714;2022-09-29T02:18:52;98583.88;;;14.67;100.00
23170;BME280;11753;43.144;24.714;2022-09-29T02:19:54;98580.81;;;14.70;100.00
23170;BME280;11753;43.144;24.714;2022-09-29T02:20:55;98575.31;;;14.72;100.00
23170;BME280;11753;43.144;24.714;2022-09-29T02:21:57;98586.53;;;14.67;100.00
23170;BME280;11753;43.144;24.714;2022-09-29T02:22:58;98589.16;;;14.74;100.00
23170;BME280;11753;43.144;24.714;2022-09-29T02:23:59;98590.00;;;14.74;100.00
23170;BME280;11753;43.144;24.714;2022-09-29T02:25:00;98587.56;;;14.73;100.00
23170;BME280;11753;43.144;24.714;2022-09-29T02:26:01;98597.72;;;14.76;100.00
23170;BME280;11753;43.144;24.714;2022-09-29T02:27:03;98591.63;;;14.75;100.00
23170;BME280;11753;43.144;24.714;2022-09-29T02:28:05;98596.09;;;14.75;100.00
23170;BME280;11753;43.144;24.714;2022-09-29T02:29:07;98596.09;;;14.75;100.00
23170;BME280;11753;43.144;24.714;2022-09-29T02:30:10;98602.63;;;14.72;100.00
23170;BME280;11753;43.144;24.714;2022-09-29T02:31:12;98604.03;;;14.68;100.00
23170;BME280;11753;43.144;24.714;2022-09-29T02:32:13;98603.03;;;14.76;100.00
23170;BME280;11753;43.144;24.714;2022-09-29T02:33:22;98608.31;;;14.63;100.00
23170;BME280;11753;43.144;24.714;2022-09-29T02:34:23;98599.78;;;14.67;100.00
23170;BME280;11753;43.144;24.714;2022-09-29T02:35:29;98601.81;;;14.65;100.00
23170;BME280;11753;43.144;24.714;2022-09-29T02:36:40;98605.66;;;14.63;100.00
23170;BME280;11753;43.144;24.714;2022-09-29T02:38:04;98601.38;;;14.62;100.00
23170;BME280;11753;43.144;24.714;2022-09-29T02:40:52;98607.28;;;14.70;100.00
23170;BME280;11753;43.144;24.714;2022-09-29T02:45:12;98608.31;;;14.69;100.00
23170;BME280;11753;43.144;24.714;2022-09-29T02:49:32;98602.63;;;14.72;100.00
23170;BME280;11753;43.144;24.714;2022-09-29T02:51:43;98605.44;;;14.64;100.00
23170;BME280;11753;43.144;24.714;2022-09-29T02:52:55;98610.38;;;14.67;100.00
23170;BME280;11753;43.144;24.714;2022-09-29T02:58:03;98610.75;;;14.77;100.00
23170;BME280;11753;43.144;24.714;2022-09-29T02:59:09;98617.88;;;14.77;100.00
23170;BME280;11753;43.144;24.714;2022-09-29T03:00:13;98615.88;;;14.79;100.00
23170;BME280;11753;43.144;24.714;2022-09-29T03:01:15;98615.88;;;14.72;100.00
23170;BME280;11753;43.144;24.714;2022-09-29T03:02:22;98614.63;;;14.68;100.00
23170;BME280;11753;43.144;24.714;2022-09-29T03:03:27;98613.63;;;14.69;100.00
23170;BME280;11753;43.144;24.714;2022-09-29T03:04:28;98608.31;;;14.69;100.00
23170;BME280;11753;43.144;24.714;2022-09-29T03:05:29;98622.78;;;14.73;100.00
23170;BME280;11753;43.144;24.714;2022-09-29T03:06:31;98623.81;;;14.72;100.00
23170;BME280;11753;43.144;24.714;2022-09-29T03:07:32;98621.78;;;14.74;100.00
23170;BME280;11753;43.144;24.714;2022-09-29T03:08:32;98620.53;;;14.70;100.00
23170;BME280;11753;43.144;24.714;2022-09-29T03:09:33;98617.28;;;14.75;100.00
23170;BME280;11753;43.144;24.714;2022-09-29T03:10:34;98619.34;;;14.79;100.00
23170;BME280;11753;43.144;24.714;2022-09-29T03:11:34;98618.69;;;14.77;100.00
23170;BME280;11753;43.144;24.714;2022-09-29T03:12:36;98615.66;;;14.80;100.00
23170;BME280;11753;43.144;24.714;2022-09-29T03:13:37;98616.25;;;14.82;100.00
23170;BME280;11753;43.144;24.714;2022-09-29T03:14:38;98616.06;;;14.84;99.95
23170;BME280;11753;43.144;24.714;2022-09-29T03:15:38;98622.16;;;14.84;99.82
23170;BME280;11753;43.144;24.714;2022-09-29T03:16:39;98610.56;;;14.79;99.69
23170;BME280;11753;43.144;24.714;2022-09-29T03:17:40;98610.38;;;14.80;99.55
23170;BME280;11753;43.144;24.714;2022-09-29T03:18:41;98612.38;;;14.78;99.55
23170;BME280;11753;43.144;24.714;2022-09-29T03:19:43;98614.84;;;14.80;99.50
23170;BME280;11753;43.144;24.714;2022-09-29T03:20:44;98614.84;;;14.80;99.44
23170;BME280;11753;43.144;24.714;2022-09-29T03:21:45;98613.22;;;14.79;99.19
23170;BME280;11753;43.144;24.714;2022-09-29T03:22:47;98604.44;;;14.78;99.39
23170;BME280;11753;43.144;24.714;2022-09-29T03:23:48;98615.66;;;14.80;99.06
23170;BME280;11753;43.144;24.714;2022-09-29T03:24:49;98613.00;;;14.80;98.79
23170;BME280;11753;43.144;24.714;2022-09-29T03:25:49;98605.25;;;14.85;98.73
23170;BME280;11753;43.144;24.714;2022-09-29T03:26:50;98603.84;;;14.83;98.74
23170;BME280;11753;43.144;24.714;2022-09-29T03:27:51;98604.66;;;14.83;98.52
23170;BME280;11753;43.144;24.714;2022-09-29T03:28:52;98604.84;;;14.82;98.66
23170;BME280;11753;43.144;24.714;2022-09-29T03:29:53;98606.69;;;14.81;98.58
23170;BME280;11753;43.144;24.714;2022-09-29T03:30:54;98609.13;;;14.83;98.43
23170;BME280;11753;43.144;24.714;2022-09-29T03:31:55;98617.69;;;14.78;98.55
23170;BME280;11753;43.144;24.714;2022-09-29T03:32:56;98604.03;;;14.81;98.30
23170;BME280;11753;43.144;24.714;2022-09-29T03:33:57;98609.94;;;14.83;98.33
23170;BME280;11753;43.144;24.714;2022-09-29T03:34:57;98616.06;;;14.77;98.64
23170;BME280;11753;43.144;24.714;2022-09-29T03:35:58;98618.91;;;14.76;98.75
23170;BME280;11753;43.144;24.714;2022-09-29T03:36:59;98616.47;;;14.81;98.73
23170;BME280;11753;43.144;24.714;2022-09-29T03:38:01;98616.47;;;14.74;98.85
23170;BME280;11753;43.144;24.714;2022-09-29T03:39:01;98611.56;;;14.71;98.75
23170;BME280;11753;43.144;24.714;2022-09-29T03:40:05;98610.16;;;14.75;98.47
23170;BME280;11753;43.144;24.714;2022-09-29T03:41:06;98608.75;;;14.66;98.90
23170;BME280;11753;43.144;24.714;2022-09-29T03:42:07;98616.88;;;14.71;98.92
23170;BME280;11753;43.144;24.714;2022-09-29T03:43:07;98606.28;;;14.58;99.46
23170;BME280;11753;43.144;24.714;2022-09-29T03:44:08;98604.66;;;14.50;100.00
23170;BME280;11753;43.144;24.714;2022-09-29T03:45:09;98607.09;;;14.58;99.82
23170;BME280;11753;43.144;24.714;2022-09-29T03:46:10;98602.63;;;14.52;99.67
23170;BME280;11753;43.144;24.714;2022-09-29T03:47:10;98605.47;;;14.51;99.64
23170;BME280;11753;43.144;24.714;2022-09-29T03:48:11;98601.97;;;14.44;100.00
23170;BME280;11753;43.144;24.714;2022-09-29T03:49:13;98598.13;;;14.46;100.00
23170;BME280;11753;43.144;24.714;2022-09-29T03:50:15;98597.50;;;14.38;100.00
23170;BME280;11753;43.144;24.714;2022-09-29T03:51:16;98609.53;;;14.47;100.00
23170;BME280;11753;43.144;24.714;2022-09-29T03:52:17;98603.38;;;14.40;100.00
23170;BME280;11753;43.144;24.714;2022-09-29T03:53:18;98592.56;;;14.35;100.00
23170;BME280;11753;43.144;24.714;2022-09-29T03:54:19;98609.09;;;14.37;100.00
23170;BME280;11753;43.144;24.714;2022-09-29T03:55:21;98609.91;;;14.37;100.00
23170;BME280;11753;43.144;24.714;2022-09-29T03:56:22;98606.63;;;14.42;100.00
23170;BME280;11753;43.144;24.714;2022-09-29T03:57:22;98606.63;;;14.28;100.00
23170;BME280;11753;43.144;24.714;2022-09-29T03:58:24;98599.69;;;14.27;100.00
23170;BME280;11753;43.144;24.714;2022-09-29T03:59:28;98613.38;;;14.38;100.00
23170;BME280;11753;43.144;24.714;2022-09-29T04:00:31;98615.81;;;14.39;100.00
23170;BME280;11753;43.144;24.714;2022-09-29T04:01:35;98613.56;;;14.36;100.00
23170;BME280;11753;43.144;24.714;2022-09-29T04:02:37;98603.81;;;14.37;100.00
23170;BME280;11753;43.144;24.714;2022-09-29T04:03:38;98604.78;;;14.36;100.00
23170;BME280;11753;43.144;24.714;2022-09-29T04:04:39;98610.31;;;14.41;100.00
23170;BME280;11753;43.144;24.714;2022-09-29T04:05:40;98607.88;;;14.39;100.00
23170;BME280;11753;43.144;24.714;2022-09-29T04:06:40;98614.84;;;14.47;100.00
23170;BME280;11753;43.144;24.714;2022-09-29T04:07:41;98609.09;;;14.43;100.00
23170;BME280;11753;43.144;24.714;2022-09-29T04:08:42;98604.81;;;14.42;100.00
23170;BME280;11753;43.144;24.714;2022-09-29T04:09:43;98612.34;;;14.39;100.00
23170;BME280;11753;43.144;24.714;2022-09-29T04:10:47;98611.75;;;14.37;100.00
23170;BME280;11753;43.144;24.714;2022-09-29T04:11:48;98611.09;;;14.35;100.00
23170;BME280;11753;43.144;24.714;2022-09-29T04:12:49;98614.38;;;14.37;100.00
23170;BME280;11753;43.144;24.714;2022-09-29T04:13:50;98616.00;;;14.38;100.00
23170;BME280;11753;43.144;24.714;2022-09-29T04:14:50;98608.06;;;14.38;100.00
23170;BME280;11753;43.144;24.714;2022-09-29T04:16:05;98612.34;;;14.39;100.00
23170;BME280;11753;43.144;24.714;2022-09-29T04:17:06;98610.72;;;14.38;100.00
23170;BME280;11753;43.144;24.714;2022-09-29T04:18:10;98607.06;;;14.39;100.00
23170;BME280;11753;43.144;24.714;2022-09-29T04:19:11;98607.84;;;14.32;100.00
23170;BME280;11753;43.144;24.714;2022-09-29T04:20:12;98603.16;;;14.35;100.00
23170;BME280;11753;43.144;24.714;2022-09-29T04:21:13;98605.81;;;14.35;100.00
23170;BME280;11753;43.144;24.714;2022-09-29T04:22:16;98610.09;;;14.36;100.00
23170;BME280;11753;43.144;24.714;2022-09-29T04:23:20;98608.69;;;14.40;100.00
23170;BME280;11753;43.144;24.714;2022-09-29T04:24:21;98618.47;;;14.39;99.92
23170;BME280;11753;43.144;24.714;2022-09-29T04:25:22;98615.41;;;14.29;100.00
23170;BME280;11753;43.144;24.714;2022-09-29T04:26:23;98619.06;;;14.35;100.00
23170;BME280;11753;43.144;24.714;2022-09-29T04:27:24;98622.94;;;14.32;100.00
23170;BME280;11753;43.144;24.714;2022-09-29T04:28:25;98622.13;;;14.38;100.00
23170;BME280;11753;43.144;24.714;2022-09-29T04:29:26;98622.34;;;14.37;100.00
23170;BME280;11753;43.144;24.714;2022-09-29T04:30:27;98630.28;;;14.43;99.78
23170;BME280;11753;43.144;24.714;2022-09-29T04:31:28;98627.81;;;14.42;99.81
23170;BME280;11753;43.144;24.714;2022-09-29T04:32:29;98624.16;;;14.36;100.00
23170;BME280;11753;43.144;24.714;2022-09-29T04:33:31;98629.44;;;14.29;100.00
23170;BME280;11753;43.144;24.714;2022-09-29T04:34:32;98630.28;;;14.37;100.00
23170;BME280;11753;43.144;24.714;2022-09-29T04:35:33;98631.47;;;14.41;100.00
23170;BME280;11753;43.144;24.714;2022-09-29T04:36:34;98623.75;;;14.39;100.00
23170;BME280;11753;43.144;24.714;2022-09-29T04:37:35;98627.81;;;14.42;99.97
23170;BME280;11753;43.144;24.714;2022-09-29T04:38:36;98624.16;;;14.36;99.93
23170;BME280;11753;43.144;24.714;2022-09-29T04:39:37;98630.69;;;14.40;99.78
23170;BME280;11753;43.144;24.714;2022-09-29T04:40:38;98628.25;;;14.45;99.58
23170;BME280;11753;43.144;24.714;2022-09-29T04:41:39;98625.97;;;14.42;99.45
23170;BME280;11753;43.144;24.714;2022-09-29T04:42:40;98632.53;;;14.46;99.20
23170;BME280;11753;43.144;24.714;2022-09-29T04:43:41;98627.66;;;14.50;99.03
23170;BME280;11753;43.144;24.714;2022-09-29T04:44:42;98632.34;;;14.48;98.98
23170;BME280;11753;43.144;24.714;2022-09-29T04:45:43;98629.31;;;14.51;98.62
23170;BME280;11753;43.144;24.714;2022-09-29T04:46:44;98630.06;;;14.45;99.03
23170;BME280;11753;43.144;24.714;2022-09-29T04:47:44;98633.75;;;14.44;99.22
23170;BME280;11753;43.144;24.714;2022-09-29T04:48:45;98630.31;;;14.50;99.28
23170;BME280;11753;43.144;24.714;2022-09-29T04:49:45;98634.19;;;14.54;98.92
23170;BME280;11753;43.144;24.714;2022-09-29T04:50:48;98630.50;;;14.55;98.83
23170;BME280;11753;43.144;24.714;2022-09-29T04:51:50;98636.84;;;14.61;98.14
23170;BME280;11753;43.144;24.714;2022-09-29T04:52:55;98642.13;;;14.61;97.83
23170;BME280;11753;43.144;24.714;2022-09-29T04:53:57;98643.38;;;14.65;97.84
23170;BME280;11753;43.144;24.714;2022-09-29T04:54:58;98635.00;;;14.68;97.46
23170;BME280;11753;43.144;24.714;2022-09-29T04:56:03;98633.38;;;14.73;97.36
23170;BME280;11753;43.144;24.714;2022-09-29T04:57:04;98634.00;;;14.75;96.80
23170;BME280;11753;43.144;24.714;2022-09-29T04:58:06;98639.72;;;14.79;96.80
23170;BME280;11753;43.144;24.714;2022-09-29T04:59:08;98631.34;;;14.75;96.79
23170;BME280;11753;43.144;24.714;2022-09-29T05:00:10;98646.00;;;14.78;97.01
23170;BME280;11753;43.144;24.714;2022-09-29T05:01:11;98643.19;;;14.79;97.11
23170;BME280;11753;43.144;24.714;2022-09-29T05:02:13;98643.34;;;14.84;96.36
23170;BME280;11753;43.144;24.714;2022-09-29T05:03:14;98634.81;;;14.82;96.50
23170;BME280;11753;43.144;24.714;2022-09-29T05:04:14;98639.09;;;14.90;95.93
23170;BME280;11753;43.144;24.714;2022-09-29T05:05:15;98634.38;;;14.85;96.38
23170;BME280;11753;43.144;24.714;2022-09-29T05:06:16;98638.06;;;14.91;96.20
23170;BME280;11753;43.144;24.714;2022-09-29T05:07:17;98635.41;;;14.98;95.66
23170;BME280;11753;43.144;24.714;2022-09-29T05:08:17;98641.94;;;14.95;95.79
23170;BME280;11753;43.144;24.714;2022-09-29T05:09:18;98637.66;;;15.01;95.88
23170;BME280;11753;43.144;24.714;2022-09-29T05:10:19;98648.88;;;15.03;95.64
23170;BME280;11753;43.144;24.714;2022-09-29T05:11:19;98627.06;;;15.07;95.60
23170;BME280;11753;43.144;24.714;2022-09-29T05:12:20;98636.81;;;15.20;95.33
23170;BME280;11753;43.144;24.714;2022-09-29T05:13:20;98631.94;;;15.17;95.04
23170;BME280;11753;43.144;24.714;2022-09-29T05:14:21;98635.97;;;15.33;94.54
23170;BME280;11753;43.144;24.714;2022-09-29T05:15:22;98641.25;;;15.39;93.65
23170;BME280;11753;43.144;24.714;2022-09-29T05:16:24;98632.28;;;15.40;93.85
23170;BME280;11753;43.144;24.714;2022-09-29T05:17:25;98627.56;;;15.49;93.45
23170;BME280;11753;43.144;24.714;2022-09-29T05:18:26;98634.31;;;15.52;92.94
23170;BME280;11753;43.144;24.714;2022-09-29T05:19:27;98625.13;;;15.48;92.84
23170;BME280;11753;43.144;24.714;2022-09-29T05:20:29;98632.25;;;15.47;92.74
23170;BME280;11753;43.144;24.714;2022-09-29T05:21:30;98624.09;;;15.49;93.02
23170;BME280;11753;43.144;24.714;2022-09-29T05:22:30;98623.06;;;15.50;92.21
23170;BME280;11753;43.144;24.714;2022-09-29T05:23:32;98623.06;;;15.50;92.25
23170;BME280;11753;43.144;24.714;2022-09-29T05:24:33;98623.69;;;15.52;92.19
23170;BME280;11753;43.144;24.714;2022-09-29T05:25:34;98614.28;;;15.49;92.13
23170;BME280;11753;43.144;24.714;2022-09-29T05:26:35;98619.22;;;15.46;91.98
23170;BME280;11753;43.144;24.714;2022-09-29T05:27:37;98605.38;;;15.44;92.51
23170;BME280;11753;43.144;24.714;2022-09-29T05:28:42;98614.28;;;15.49;92.37
23170;BME280;11753;43.144;24.714;2022-09-29T05:29:43;98596.16;;;15.53;92.22
23170;BME280;11753;43.144;24.714;2022-09-29T05:30:44;98612.28;;;15.51;92.27
23170;BME280;11753;43.144;24.714;2022-09-29T05:31:45;98609.41;;;15.53;91.86
23170;BME280;11753;43.144;24.714;2022-09-29T05:32:46;98611.25;;;15.52;92.26
23170;BME280;11753;43.144;24.714;2022-09-29T05:33:47;98603.91;;;15.48;92.64
23170;BME280;11753;43.144;24.714;2022-09-29T05:34:48;98607.78;;;15.52;92.55
23170;BME280;11753;43.144;24.714;2022-09-29T05:35:50;98608.81;;;15.51;92.31
23170;BME280;11753;43.144;24.714;2022-09-29T05:36:51;98610.25;;;15.47;92.25
23170;BME280;11753;43.144;24.714;2022-09-29T05:37:52;98604.31;;;15.51;92.30
23170;BME280;11753;43.144;24.714;2022-09-29T05:38:53;98601.03;;;15.56;92.17
23170;BME280;11753;43.144;24.714;2022-09-29T05:39:53;98604.09;;;15.53;92.14
23170;BME280;11753;43.144;24.714;2022-09-29T05:40:54;98598.59;;;15.54;92.47
23170;BME280;11753;43.144;24.714;2022-09-29T05:41:55;98593.06;;;15.56;92.22
23170;BME280;11753;43.144;24.714;2022-09-29T05:42:57;98592.66;;;15.59;92.37
23170;BME280;11753;43.144;24.714;2022-09-29T05:43:59;98594.28;;;15.66;92.36
23170;BME280;11753;43.144;24.714;2022-09-29T05:45:01;98600.19;;;15.68;91.83
23170;BME280;11753;43.144;24.714;2022-09-29T05:46:03;98599.81;;;15.65;91.82
23170;BME280;11753;43.144;24.714;2022-09-29T05:47:04;98594.66;;;15.70;91.66
23170;BME280;11753;43.144;24.714;2022-09-29T05:48:05;98594.84;;;15.75;91.68
23170;BME280;11753;43.144;24.714;2022-09-29T05:49:05;98594.25;;;15.73;91.66
23170;BME280;11753;43.144;24.714;2022-09-29T05:50:06;98593.41;;;15.79;91.58
23170;BME280;11753;43.144;24.714;2022-09-29T05:51:12;98592.16;;;15.88;91.40
23170;BME280;11753;43.144;24.714;2022-09-29T05:52:13;98590.88;;;15.98;91.08
23170;BME280;11753;43.144;24.714;2022-09-29T05:53:13;98591.00;;;16.09;90.53
23170;BME280;11753;43.144;24.714;2022-09-29T05:54:16;98598.13;;;16.15;89.99
23170;BME280;11753;43.144;24.714;2022-09-29T05:55:17;98592.00;;;16.15;89.92
23170;BME280;11753;43.144;24.714;2022-09-29T05:56:21;98602.50;;;16.28;89.58
23170;BME280;11753;43.144;24.714;2022-09-29T05:57:22;98599.03;;;16.28;89.17
23170;BME280;11753;43.144;24.714;2022-09-29T05:58:23;98590.63;;;16.37;88.89
23170;BME280;11753;43.144;24.714;2022-09-29T05:59:24;98598.09;;;16.47;88.35